createdAt,value
2022-08-06T00:02:07.370Z,18.70
2022-08-06T00:04:35.373Z,18.60
2022-08-06T00:07:05.208Z,18.60
2022-08-06T00:09:57.126Z,18.50
2022-08-06T00:12:22.457Z,18.50
2022-08-06T00:14:57.695Z,18.50
2022-08-06T00:17:31.741Z,18.50
2022-08-06T00:20:02.823Z,18.40
2022-08-06T00:22:32.064Z,18.40
2022-08-06T00:25:01.117Z,18.30
2022-08-06T00:27:38.423Z,18.30
2022-08-06T00:30:14.989Z,18.20
2022-08-06T00:32:51.852Z,18.20
2022-08-06T00:35:23.683Z,18.10
2022-08-06T00:37:58.506Z,18.10
2022-08-06T00:40:28.827Z,18.00
2022-08-06T00:42:58.334Z,18.00
2022-08-06T00:45:26.597Z,17.90
2022-08-06T00:48:01.913Z,17.90
2022-08-06T00:50:32.231Z,17.80
2022-08-06T00:53:01.749Z,17.80
2022-08-06T00:55:31.854Z,17.70
2022-08-06T00:58:05.244Z,17.60
2022-08-06T01:00:38.669Z,17.60
2022-08-06T01:03:19.067Z,17.50
2022-08-06T01:06:06.697Z,17.50
2022-08-06T01:08:45.323Z,17.50
2022-08-06T01:11:14.172Z,17.50
2022-08-06T01:14:03.529Z,17.40
2022-08-06T01:16:40.554Z,17.40
2022-08-06T01:21:20.378Z,17.40
2022-08-06T01:22:48.215Z,17.30
2022-08-06T01:25:48.781Z,17.40
2022-08-06T01:28:28.740Z,17.40
2022-08-06T01:31:04.895Z,17.30
2022-08-06T01:33:40.374Z,17.30
2022-08-06T01:36:17.224Z,17.20
2022-08-06T01:38:59.278Z,17.20
2022-08-06T01:41:56.277Z,17.10
2022-08-06T01:44:36.262Z,17.20
2022-08-06T01:47:16.303Z,17.10
2022-08-06T01:50:01.391Z,17.00
2022-08-06T01:52:36.557Z,17.00
2022-08-06T01:55:09.845Z,17.00
2022-08-06T01:58:07.465Z,17.00
2022-08-06T02:00:33.090Z,16.90
2022-08-06T02:03:04.265Z,16.90
2022-08-06T02:05:44.732Z,16.80
2022-08-06T02:08:39.399Z,16.80
2022-08-06T02:12:00.710Z,16.80
2022-08-06T02:14:02.036Z,16.70
2022-08-06T02:16:36.336Z,16.70
2022-08-06T02:19:15.942Z,16.70
2022-08-06T02:21:50.596Z,16.70
2022-08-06T02:24:28.460Z,16.70
2022-08-06T02:27:00.828Z,16.70
2022-08-06T02:30:05.077Z,16.60
2022-08-06T02:32:20.987Z,16.60
2022-08-06T02:34:52.528Z,16.50
2022-08-06T02:38:02.694Z,16.50
2022-08-06T02:40:19.815Z,16.40
2022-08-06T02:42:55.288Z,16.40
2022-08-06T02:45:29.828Z,16.40
2022-08-06T02:48:22.138Z,16.30
2022-08-06T02:51:05.296Z,16.20
2022-08-06T02:54:04.203Z,16.20
2022-08-06T02:56:42.686Z,16.10
2022-08-06T02:59:17.242Z,16.10
2022-08-06T03:01:51.136Z,16.10
2022-08-06T03:04:32.005Z,16.10
2022-08-06T03:07:06.738Z,16.10
2022-08-06T03:09:56.421Z,16.00
2022-08-06T03:12:29.401Z,16.00
2022-08-06T03:15:15.317Z,16.00
2022-08-06T03:18:01.568Z,16.00
2022-08-06T03:20:34.880Z,16.00
2022-08-06T03:23:06.842Z,16.00
2022-08-06T03:25:42.157Z,15.90
2022-08-06T03:28:11.479Z,15.90
2022-08-06T03:30:49.436Z,15.90
2022-08-06T03:33:29.250Z,15.80
2022-08-06T03:36:17.586Z,15.80
2022-08-06T03:38:54.482Z,15.80
2022-08-06T03:41:29.146Z,15.70
2022-08-06T03:44:04.861Z,15.70
2022-08-06T03:46:37.713Z,15.70
2022-08-06T03:49:10.293Z,15.70
2022-08-06T03:51:51.929Z,15.70
2022-08-06T03:54:30.393Z,15.70
2022-08-06T03:57:08.465Z,15.70
2022-08-06T03:59:57.490Z,15.70
2022-08-06T04:02:36.655Z,15.70
2022-08-06T04:05:13.667Z,15.70
2022-08-06T04:07:55.052Z,15.60
2022-08-06T04:10:33.777Z,15.70
2022-08-06T04:13:08.130Z,15.70
2022-08-06T04:15:55.981Z,15.70
2022-08-06T04:18:27.231Z,15.70
2022-08-06T04:21:05.178Z,15.70
2022-08-06T04:23:48.515Z,15.70
2022-08-06T04:26:20.594Z,15.70
2022-08-06T04:28:53.235Z,15.60
2022-08-06T04:32:13.042Z,15.70
2022-08-06T04:34:26.955Z,15.70
2022-08-06T04:36:58.562Z,15.60
2022-08-06T04:39:37.289Z,15.60
2022-08-06T04:42:09.452Z,15.60
2022-08-06T04:44:38.217Z,15.50
2022-08-06T04:47:14.825Z,15.50
2022-08-06T04:50:01.578Z,15.50
2022-08-06T04:52:46.105Z,15.50
2022-08-06T04:55:24.938Z,15.50
2022-08-06T04:58:03.858Z,15.40
2022-08-06T05:00:59.779Z,15.40
2022-08-06T05:04:06.176Z,15.40
2022-08-06T05:06:21.931Z,15.40
2022-08-06T05:08:55.395Z,15.50
2022-08-06T05:11:28.810Z,15.50
2022-08-06T05:14:03.220Z,15.50
2022-08-06T05:16:38.785Z,15.50
2022-08-06T05:19:20.103Z,15.50
2022-08-06T05:22:10.321Z,15.60
2022-08-06T05:25:00.919Z,15.60
2022-08-06T05:27:54.563Z,15.70
2022-08-06T05:30:19.678Z,15.80
2022-08-06T05:32:50.974Z,15.80
2022-08-06T05:35:41.543Z,15.80
2022-08-06T05:38:13.379Z,15.80
2022-08-06T05:40:53.300Z,15.90
2022-08-06T05:43:59.880Z,16.00
2022-08-06T05:46:21.561Z,16.20
2022-08-06T05:49:12.109Z,16.30
2022-08-06T05:51:58.363Z,16.40
2022-08-06T05:54:34.930Z,16.60
2022-08-06T05:57:07.335Z,16.80
2022-08-06T05:59:57.057Z,16.90
2022-08-06T06:02:29.598Z,16.90
2022-08-06T06:06:07.423Z,17.00
2022-08-06T06:08:08.195Z,17.00
2022-08-06T06:10:39.550Z,17.20
2022-08-06T06:13:25.449Z,17.30
2022-08-06T06:16:14.052Z,17.30
2022-08-06T06:19:05.089Z,17.40
2022-08-06T06:21:51.037Z,17.40
2022-08-06T06:24:24.855Z,17.50
2022-08-06T06:26:59.074Z,17.60
2022-08-06T06:30:02.558Z,17.70
2022-08-06T06:32:41.604Z,17.60
2022-08-06T06:35:20.713Z,17.80
2022-08-06T06:37:58.147Z,17.80
2022-08-06T06:41:00.042Z,17.80
2022-08-06T06:43:44.095Z,18.10
2022-08-06T06:46:36.182Z,18.20
2022-08-06T06:49:59.453Z,18.30
2022-08-06T06:52:09.560Z,18.40
2022-08-06T06:54:42.274Z,18.50
2022-08-06T06:57:17.810Z,18.60
2022-08-06T07:00:01.389Z,18.70
2022-08-06T07:02:41.388Z,18.70
2022-08-06T07:05:13.614Z,18.80
2022-08-06T07:07:49.626Z,18.90
2022-08-06T07:10:20.884Z,18.90
2022-08-06T07:12:53.763Z,19.00
2022-08-06T07:15:23.996Z,19.10
2022-08-06T07:17:59.752Z,19.40
2022-08-06T07:20:45.170Z,19.40
2022-08-06T07:24:06.672Z,19.60
2022-08-06T07:26:07.376Z,19.70
2022-08-06T07:28:36.756Z,19.80
2022-08-06T07:31:09.570Z,19.70
2022-08-06T07:34:00.147Z,19.80
2022-08-06T07:36:37.554Z,20.00
2022-08-06T07:39:09.585Z,19.90
2022-08-06T07:42:07.671Z,20.10
2022-08-06T07:44:33.874Z,20.20
2022-08-06T07:47:23.330Z,20.20
2022-08-06T07:50:00.046Z,20.30
2022-08-06T07:52:31.738Z,20.40
2022-08-06T07:55:01.491Z,20.30
2022-08-06T07:57:53.401Z,20.40
2022-08-06T08:00:20.941Z,20.30
2022-08-06T08:03:03.349Z,20.30
2022-08-06T08:06:00.812Z,20.50
2022-08-06T08:08:32.087Z,20.60
2022-08-06T08:11:03.379Z,20.80
2022-08-06T08:13:41.721Z,21.00
2022-08-06T08:16:20.177Z,20.80
2022-08-06T08:18:56.464Z,21.00
2022-08-06T08:21:24.940Z,21.00
2022-08-06T08:23:55.794Z,21.00
2022-08-06T08:26:25.275Z,21.10
2022-08-06T08:28:53.636Z,21.30
2022-08-06T08:31:25.756Z,21.30
2022-08-06T08:33:54.964Z,21.40
2022-08-06T08:36:30.586Z,21.60
2022-08-06T08:39:00.569Z,21.50
2022-08-06T08:41:48.628Z,21.50
2022-08-06T08:44:26.789Z,21.60
2022-08-06T08:46:58.802Z,21.80
2022-08-06T08:49:32.570Z,21.40
2022-08-06T08:52:01.798Z,21.50
2022-08-06T08:54:36.749Z,21.60
2022-08-06T08:58:40.687Z,21.80
2022-08-06T09:00:01.934Z,22.00
2022-08-06T09:02:31.637Z,22.10
2022-08-06T09:05:01.877Z,22.10
2022-08-06T09:07:35.605Z,22.10
2022-08-06T09:10:09.168Z,22.10
2022-08-06T09:12:45.233Z,21.90
2022-08-06T09:15:17.508Z,22.00
2022-08-06T09:18:11.637Z,22.00
2022-08-06T09:20:36.684Z,22.00
2022-08-06T09:23:07.831Z,22.10
2022-08-06T09:25:49.561Z,22.30
2022-08-06T09:28:34.055Z,22.30
2022-08-06T09:31:05.510Z,22.40
2022-08-06T09:34:31.046Z,22.50
2022-08-06T09:36:30.359Z,22.50
2022-08-06T09:39:01.198Z,22.60
2022-08-06T09:41:32.827Z,22.50
2022-08-06T09:44:37.754Z,22.60
2022-08-06T09:47:01.152Z,22.60
2022-08-06T09:49:58.475Z,22.60
2022-08-06T09:52:28.777Z,22.70
2022-08-06T09:54:56.827Z,22.60
2022-08-06T09:57:35.963Z,22.70
2022-08-06T10:00:14.686Z,22.80
2022-08-06T10:02:50.838Z,23.10
2022-08-06T10:05:23.162Z,23.20
2022-08-06T10:08:05.550Z,23.10
2022-08-06T10:10:45.196Z,23.20
2022-08-06T10:13:19.980Z,23.30
2022-08-06T10:16:00.488Z,23.40
2022-08-06T10:18:55.295Z,23.30
2022-08-06T10:21:41.277Z,23.10
2022-08-06T10:24:12.428Z,22.80
2022-08-06T10:26:43.569Z,23.10
2022-08-06T10:29:16.433Z,23.20
2022-08-06T10:31:46.659Z,23.40
2022-08-06T10:34:29.647Z,23.40
2022-08-06T10:37:03.661Z,23.50
2022-08-06T10:40:09.515Z,23.40
2022-08-06T10:42:28.393Z,23.70
2022-08-06T10:45:00.080Z,23.80
2022-08-06T10:48:57.695Z,23.60
2022-08-06T10:50:44.655Z,23.30
2022-08-06T10:53:59.317Z,23.50
2022-08-06T10:56:08.866Z,23.90
2022-08-06T10:58:38.854Z,24.00
2022-08-06T11:01:16.952Z,23.90
2022-08-06T11:03:57.438Z,24.00
2022-08-06T11:06:39.401Z,24.30
2022-08-06T11:09:59.854Z,24.30
2022-08-06T11:12:33.192Z,24.20
2022-08-06T11:15:02.777Z,24.20
2022-08-06T11:17:46.110Z,24.40
2022-08-06T11:20:37.611Z,24.30
2022-08-06T11:23:11.896Z,24.50
2022-08-06T11:25:57.217Z,24.60
2022-08-06T11:29:01.074Z,24.40
2022-08-06T11:31:44.397Z,24.30
2022-08-06T11:34:51.103Z,24.20
2022-08-06T11:38:03.711Z,24.50
2022-08-06T11:40:55.242Z,24.90
2022-08-06T11:44:04.107Z,25.00
2022-08-06T11:46:36.556Z,25.00
2022-08-06T11:49:42.967Z,25.20
2022-08-06T11:52:39.378Z,25.20
2022-08-06T11:55:12.902Z,25.00
2022-08-06T11:58:15.215Z,24.90
2022-08-06T12:00:58.273Z,24.90
2022-08-06T12:03:44.498Z,24.80
2022-08-06T12:06:29.254Z,25.00
2022-08-06T12:09:20.907Z,25.10
2022-08-06T12:11:52.183Z,25.20
2022-08-06T12:14:47.313Z,25.10
2022-08-06T12:17:18.647Z,24.90
2022-08-06T12:20:02.731Z,24.90
2022-08-06T12:22:33.933Z,25.00
2022-08-06T12:25:10.779Z,25.30
2022-08-06T12:27:50.434Z,25.40
2022-08-06T12:30:36.203Z,25.50
2022-08-06T12:33:12.282Z,25.70
2022-08-06T12:35:52.399Z,25.80
2022-08-06T12:38:24.744Z,25.70
2022-08-06T12:40:57.130Z,25.90
2022-08-06T12:43:42.982Z,26.10
2022-08-06T12:46:19.583Z,26.10
2022-08-06T12:48:51.063Z,26.40
2022-08-06T12:51:21.964Z,26.10
2022-08-06T12:54:00.135Z,26.20
2022-08-06T12:56:32.690Z,26.10
2022-08-06T12:59:03.664Z,26.20
2022-08-06T13:02:10.106Z,25.90
2022-08-06T13:04:29.760Z,25.70
2022-08-06T13:07:01.968Z,25.70
2022-08-06T13:09:35.953Z,25.80
2022-08-06T13:12:20.015Z,26.10
2022-08-06T13:15:02.657Z,26.00
2022-08-06T13:18:03.589Z,26.00
2022-08-06T13:20:43.732Z,26.20
2022-08-06T13:23:23.208Z,26.30
2022-08-06T13:25:53.421Z,26.40
2022-08-06T13:28:29.026Z,26.80
2022-08-06T13:31:01.426Z,27.40
2022-08-06T13:33:29.845Z,27.20
2022-08-06T13:36:08.313Z,27.00
2022-08-06T13:38:42.092Z,27.30
2022-08-06T13:41:26.169Z,27.20
2022-08-06T13:43:57.914Z,26.80
2022-08-06T13:46:29.517Z,26.70
2022-08-06T13:49:01.579Z,27.10
2022-08-06T13:51:34.626Z,27.70
2022-08-06T13:54:14.364Z,27.50
2022-08-06T13:56:52.569Z,28.30
2022-08-06T13:59:40.599Z,28.60
2022-08-06T14:02:12.295Z,28.50
2022-08-06T14:04:40.933Z,29.00
2022-08-06T14:07:17.907Z,29.00
2022-08-06T14:10:07.927Z,29.00
2022-08-06T14:12:35.527Z,28.60
2022-08-06T14:15:03.829Z,28.80
2022-08-06T14:17:35.146Z,29.40
2022-08-06T14:20:14.183Z,29.40
2022-08-06T14:22:48.334Z,29.50
2022-08-06T14:25:17.947Z,29.40
2022-08-06T14:27:47.302Z,29.50
2022-08-06T14:30:25.445Z,29.40
2022-08-06T14:32:57.084Z,29.30
2022-08-06T14:35:26.062Z,30.10
2022-08-06T14:37:55.969Z,29.50
2022-08-06T14:41:01.479Z,29.60
2022-08-06T14:43:55.820Z,30.20
2022-08-06T14:46:27.513Z,30.00
2022-08-06T14:49:00.344Z,29.60
2022-08-06T14:51:48.423Z,29.90
2022-08-06T14:54:18.540Z,30.70
2022-08-06T14:56:52.452Z,31.00
2022-08-06T14:59:23.471Z,31.00
2022-08-06T15:01:51.979Z,30.50
2022-08-06T15:04:23.489Z,30.80
2022-08-06T15:06:58.678Z,30.50
2022-08-06T15:10:06.064Z,30.30
2022-08-06T15:12:35.098Z,30.20
2022-08-06T15:15:13.339Z,30.20
2022-08-06T15:18:07.164Z,30.20
2022-08-06T15:20:30.159Z,30.20
2022-08-06T15:23:00.135Z,29.70
2022-08-06T15:26:01.508Z,29.70
2022-08-06T15:28:17.913Z,29.80
2022-08-06T15:30:49.663Z,30.30
2022-08-06T15:33:17.741Z,31.00
2022-08-06T15:35:56.758Z,31.50
2022-08-06T15:38:27.929Z,31.20
2022-08-06T15:40:59.893Z,31.10
2022-08-06T15:43:43.706Z,31.30
2022-08-06T15:46:14.456Z,30.70
2022-08-06T15:48:46.931Z,30.40
2022-08-06T15:51:29.631Z,30.30
2022-08-06T15:53:59.440Z,30.60
2022-08-06T15:56:38.523Z,30.50
2022-08-06T15:59:20.307Z,30.20
2022-08-06T16:01:52.663Z,30.10
2022-08-06T16:04:35.836Z,30.70
2022-08-06T16:07:06.330Z,30.90
2022-08-06T16:10:00.832Z,30.10
2022-08-06T16:12:23.183Z,30.00
2022-08-06T16:14:54.419Z,30.30
2022-08-06T16:17:33.467Z,30.60
2022-08-06T16:20:20.808Z,30.90
2022-08-06T16:22:52.317Z,30.50
2022-08-06T16:25:22.010Z,30.40
2022-08-06T16:27:52.400Z,30.60
2022-08-06T16:30:21.459Z,29.90
2022-08-06T16:32:51.081Z,30.10
2022-08-06T16:35:21.802Z,30.00
2022-08-06T16:37:51.929Z,30.30
2022-08-06T16:40:21.610Z,30.20
2022-08-06T16:42:49.790Z,30.00
2022-08-06T16:45:19.477Z,29.80
2022-08-06T16:48:03.713Z,30.20
2022-08-06T16:50:41.496Z,30.30
2022-08-06T16:55:59.047Z,29.50
2022-08-06T16:58:34.107Z,29.40
2022-08-06T17:02:21.425Z,28.90
2022-08-06T17:04:00.031Z,28.70
2022-08-06T17:06:31.332Z,28.10
2022-08-06T17:09:01.271Z,27.80
2022-08-06T17:11:46.824Z,27.10
2022-08-06T17:14:20.832Z,27.00
2022-08-06T17:16:49.001Z,26.40
2022-08-06T17:19:19.456Z,26.10
2022-08-06T17:21:58.227Z,25.70
2022-08-06T17:27:17.512Z,25.30
2022-08-06T17:30:08.287Z,25.10
2022-08-06T17:32:45.924Z,25.00
2022-08-06T17:35:17.334Z,25.00
2022-08-06T17:37:50.087Z,24.90
2022-08-06T17:40:31.147Z,24.70
2022-08-06T17:43:04.155Z,24.70
2022-08-06T17:45:35.193Z,24.60
2022-08-06T17:48:04.288Z,24.50
2022-08-06T17:50:41.656Z,24.50
2022-08-06T17:53:20.411Z,24.30
2022-08-06T17:55:59.989Z,24.40
2022-08-06T17:58:39.177Z,24.20
2022-08-06T18:01:42.907Z,24.20
2022-08-06T18:04:30.210Z,24.10
2022-08-06T18:06:58.283Z,24.00
2022-08-06T18:10:10.076Z,23.90
2022-08-06T18:12:18.535Z,23.90
2022-08-06T18:14:51.945Z,23.90
2022-08-06T18:17:20.781Z,23.80
2022-08-06T18:19:48.908Z,23.70
2022-08-06T18:22:23.206Z,23.60
2022-08-06T18:24:55.383Z,23.60
2022-08-06T18:27:54.400Z,23.50
2022-08-06T18:30:36.579Z,23.40
2022-08-06T18:33:08.228Z,23.30
2022-08-06T18:35:57.860Z,23.20
2022-08-06T18:38:31.964Z,23.20
2022-08-06T18:41:05.868Z,23.10
2022-08-06T18:43:49.574Z,23.10
2022-08-06T18:47:02.146Z,23.00
2022-08-06T18:49:15.381Z,22.90
2022-08-06T18:51:46.771Z,22.80
2022-08-06T18:54:21.256Z,22.70
2022-08-06T18:56:52.274Z,22.70
2022-08-06T18:59:28.244Z,22.60
2022-08-06T19:01:57.254Z,22.60
2022-08-06T19:04:27.185Z,22.50
2022-08-06T19:07:00.307Z,22.40
2022-08-06T19:09:33.857Z,22.30
2022-08-06T19:12:12.683Z,22.20
2022-08-06T19:14:44.170Z,22.10
2022-08-06T19:17:17.097Z,22.10
2022-08-06T19:20:18.570Z,22.00
2022-08-06T19:22:39.449Z,21.90
2022-08-06T19:25:10.610Z,21.90
2022-08-06T19:28:29.814Z,21.80
2022-08-06T19:30:38.613Z,21.80
2022-08-06T19:33:16.457Z,21.80
2022-08-06T19:36:06.974Z,21.80
2022-08-06T19:38:34.173Z,21.70
2022-08-06T19:41:03.885Z,21.60
2022-08-06T19:44:27.061Z,21.60
2022-08-06T19:46:30.126Z,21.60
2022-08-06T19:49:04.419Z,21.60
2022-08-06T19:52:03.393Z,21.50
2022-08-06T19:54:26.234Z,21.50
2022-08-06T19:57:08.594Z,21.40
2022-08-06T20:00:53.367Z,21.40
2022-08-06T20:02:28.777Z,21.30
2022-08-06T20:04:57.897Z,21.30
2022-08-06T20:07:27.219Z,21.20
2022-08-06T20:09:59.815Z,21.20
2022-08-06T20:12:34.945Z,21.10
2022-08-06T20:15:06.161Z,21.10
2022-08-06T20:17:48.647Z,21.10
2022-08-06T20:20:29.044Z,21.10
2022-08-06T20:23:08.875Z,21.00
2022-08-06T20:26:34.063Z,21.00
2022-08-06T20:29:08.029Z,20.90
2022-08-06T20:31:19.873Z,20.90
2022-08-06T20:33:59.227Z,20.90
2022-08-06T20:36:29.143Z,20.80
2022-08-06T20:38:57.575Z,20.80
2022-08-06T20:41:59.129Z,20.70
2022-08-06T20:44:18.211Z,20.70
2022-08-06T20:47:45.184Z,20.60
2022-08-06T20:50:02.840Z,20.60
2022-08-06T20:52:28.619Z,20.40
2022-08-06T20:54:57.948Z,20.40
2022-08-06T20:57:28.390Z,20.30
2022-08-06T21:00:00.052Z,20.30
2022-08-06T21:02:32.521Z,20.20
2022-08-06T21:05:15.230Z,20.20
2022-08-06T21:07:56.634Z,20.10
2022-08-06T21:10:30.301Z,20.00
2022-08-06T21:13:02.063Z,20.00
2022-08-06T21:15:55.034Z,19.90
2022-08-06T21:18:24.117Z,19.80
2022-08-06T21:20:52.815Z,19.80
2022-08-06T21:23:26.219Z,19.70
2022-08-06T21:26:15.068Z,19.60
2022-08-06T21:28:52.345Z,19.60
2022-08-06T21:31:25.297Z,19.50
2022-08-06T21:33:57.001Z,19.40
2022-08-06T21:36:28.712Z,19.30
2022-08-06T21:38:58.004Z,19.30
2022-08-06T21:41:55.891Z,19.20
2022-08-06T21:44:24.335Z,19.20
2022-08-06T21:46:58.789Z,19.10
2022-08-06T21:49:59.990Z,19.10
2022-08-06T21:52:16.245Z,19.00
2022-08-06T21:54:54.246Z,19.00
2022-08-06T21:57:25.223Z,19.00
2022-08-06T21:59:53.580Z,18.90
2022-08-06T22:02:28.229Z,18.80
2022-08-06T22:05:00.795Z,18.80
2022-08-06T22:08:06.935Z,18.80
2022-08-06T22:10:28.885Z,18.70
2022-08-06T22:13:11.718Z,18.70
2022-08-06T22:15:46.906Z,18.70
2022-08-06T22:18:19.017Z,18.60
2022-08-06T22:20:57.364Z,18.50
2022-08-06T22:23:28.889Z,18.50
2022-08-06T22:25:57.531Z,18.40
2022-08-06T22:28:34.168Z,18.30
2022-08-06T22:31:08.363Z,18.30
2022-08-06T22:33:45.785Z,18.20
2022-08-06T22:36:34.751Z,18.20
2022-08-06T22:39:03.809Z,18.10
2022-08-06T22:41:42.404Z,18.00
2022-08-06T22:44:36.339Z,18.00
2022-08-06T22:47:09.611Z,17.90
2022-08-06T22:50:01.489Z,17.80
2022-08-06T22:52:45.035Z,17.70
2022-08-06T22:55:18.020Z,17.70
2022-08-06T22:59:01.575Z,17.70
2022-08-06T23:00:35.640Z,17.50
2022-08-06T23:03:04.201Z,17.50
2022-08-06T23:05:44.816Z,17.50
2022-08-06T23:08:15.443Z,17.40
2022-08-06T23:10:48.196Z,17.40
2022-08-06T23:13:26.009Z,17.30
2022-08-06T23:15:58.079Z,17.30
2022-08-06T23:18:28.861Z,17.20
2022-08-06T23:21:20.341Z,17.20
2022-08-06T23:23:53.763Z,17.20
2022-08-06T23:26:31.808Z,17.10
2022-08-06T23:29:01.423Z,17.10
2022-08-06T23:31:34.006Z,17.10
2022-08-06T23:34:21.243Z,17.00
2022-08-06T23:36:57.314Z,17.00
2022-08-06T23:39:36.962Z,16.90
2022-08-06T23:42:14.678Z,16.80
2022-08-06T23:44:51.895Z,16.80
2022-08-06T23:47:54.166Z,16.70
2022-08-06T23:50:11.113Z,16.70
2022-08-06T23:52:41.657Z,16.60
2022-08-06T23:55:25.675Z,16.50
2022-08-06T23:57:57.894Z,16.40
